createdAt,value
2017-04-26T00:00:33.965Z,1001.09
2017-04-26T00:01:35.380Z,1001.09
2017-04-26T00:02:36.793Z,1001.06
2017-04-26T00:03:38.208Z,1001.04
2017-04-26T00:04:39.618Z,1001.02
2017-04-26T00:05:41.037Z,1001.03
2017-04-26T00:06:42.464Z,1000.95
2017-04-26T00:07:43.873Z,1001.00
2017-04-26T00:08:45.294Z,1001.00
2017-04-26T00:09:46.709Z,1000.97
2017-04-26T00:10:48.119Z,1000.96
2017-04-26T00:11:49.529Z,1000.95
2017-04-26T00:12:50.967Z,1000.96
2017-04-26T00:13:52.354Z,1000.92
2017-04-26T00:14:53.777Z,1000.95
2017-04-26T00:15:55.189Z,1000.95
2017-04-26T00:16:56.602Z,1000.88
2017-04-26T00:17:58.019Z,1000.88
2017-04-26T00:18:59.433Z,1000.93
2017-04-26T00:20:00.844Z,1000.91
2017-04-26T00:21:02.254Z,1000.94
2017-04-26T00:22:03.673Z,1000.91
2017-04-26T00:23:05.085Z,1000.92
2017-04-26T00:24:06.505Z,1000.95
2017-04-26T00:25:07.918Z,1000.93
2017-04-26T00:26:09.343Z,1000.95
2017-04-26T00:27:10.810Z,1000.97
2017-04-26T00:28:12.242Z,1001.06
2017-04-26T00:29:13.658Z,1001.04
2017-04-26T00:30:15.071Z,1001.09
2017-04-26T00:31:16.523Z,1001.06
2017-04-26T00:32:17.948Z,1001.08
2017-04-26T00:33:19.354Z,1001.05
2017-04-26T00:34:20.777Z,1001.08
2017-04-26T00:35:22.194Z,1001.08
2017-04-26T00:36:23.609Z,1001.08
2017-04-26T00:37:25.020Z,1001.01
2017-04-26T00:38:26.431Z,1001.06
2017-04-26T00:39:27.843Z,1001.10
2017-04-26T00:40:29.258Z,1001.09
2017-04-26T00:41:30.671Z,1001.11
2017-04-26T00:42:32.082Z,1001.03
2017-04-26T00:43:33.494Z,1001.00
2017-04-26T00:44:34.918Z,1001.07
2017-04-26T00:45:36.336Z,1001.08
2017-04-26T00:46:37.746Z,1001.03
2017-04-26T00:47:39.160Z,1001.06
2017-04-26T00:48:40.576Z,1001.12
2017-04-26T00:49:41.990Z,1001.11
2017-04-26T00:50:43.399Z,1001.05
2017-04-26T00:51:44.813Z,1001.09
2017-04-26T00:52:46.239Z,1001.05
2017-04-26T00:53:47.645Z,1001.04
2017-04-26T00:54:49.061Z,1001.07
2017-04-26T00:55:50.473Z,1001.04
2017-04-26T00:56:51.884Z,1001.05
2017-04-26T00:57:53.295Z,1001.06
2017-04-26T00:58:54.720Z,1001.06
2017-04-26T00:59:56.128Z,1001.11
2017-04-26T01:00:57.540Z,1001.09
2017-04-26T01:01:58.953Z,1001.14
2017-04-26T01:03:00.378Z,1001.11
2017-04-26T01:04:01.799Z,1001.08
2017-04-26T01:05:03.202Z,1001.08
2017-04-26T01:06:04.624Z,1001.07
2017-04-26T01:07:06.149Z,1001.07
2017-04-26T01:08:07.562Z,1001.08
2017-04-26T01:09:08.974Z,1001.07
2017-04-26T01:10:10.401Z,1001.06
2017-04-26T01:11:11.807Z,1001.10
2017-04-26T01:12:13.227Z,1001.07
2017-04-26T01:13:14.637Z,1001.08
2017-04-26T01:14:16.052Z,1001.10
2017-04-26T01:15:17.467Z,1001.01
2017-04-26T01:16:18.870Z,1001.00
2017-04-26T01:17:20.293Z,1000.96
2017-04-26T01:18:21.700Z,1000.97
2017-04-26T01:19:23.113Z,1000.99
2017-04-26T01:20:24.516Z,1000.96
2017-04-26T01:21:25.936Z,1000.97
2017-04-26T01:22:27.342Z,1001.01
2017-04-26T01:23:28.749Z,1000.99
2017-04-26T01:24:30.166Z,1001.03
2017-04-26T01:25:31.586Z,1001.09
2017-04-26T01:26:33.006Z,1001.07
2017-04-26T01:27:34.415Z,1001.08
2017-04-26T01:28:35.828Z,1001.05
2017-04-26T01:29:37.245Z,1001.05
2017-04-26T01:30:38.667Z,1001.04
2017-04-26T01:31:40.079Z,1001.01
2017-04-26T01:32:41.491Z,1001.07
2017-04-26T01:33:42.916Z,1001.08
2017-04-26T01:34:44.320Z,1001.04
2017-04-26T01:35:45.727Z,1001.08
2017-04-26T01:36:47.143Z,1001.10
2017-04-26T01:37:48.553Z,1001.08
2017-04-26T01:38:49.974Z,1001.11
2017-04-26T01:39:51.381Z,1001.16
2017-04-26T01:40:52.794Z,1001.15
2017-04-26T01:41:54.273Z,1001.15
2017-04-26T01:42:55.681Z,1001.16
2017-04-26T01:43:57.093Z,1001.15
2017-04-26T01:44:58.508Z,1001.17
2017-04-26T01:45:59.922Z,1001.12
2017-04-26T01:47:01.336Z,1001.14
2017-04-26T01:48:02.750Z,1001.14
2017-04-26T01:49:04.163Z,1001.14
2017-04-26T01:50:05.572Z,1001.11
2017-04-26T01:51:06.982Z,1001.15
2017-04-26T01:52:08.393Z,1001.14
2017-04-26T01:53:09.801Z,1001.19
2017-04-26T01:54:11.215Z,1001.21
2017-04-26T01:55:12.624Z,1001.22
2017-04-26T01:56:14.032Z,1001.22
2017-04-26T01:57:15.440Z,1001.17
2017-04-26T01:58:16.877Z,1001.16
2017-04-26T01:59:18.268Z,1001.16
2017-04-26T02:00:19.677Z,1001.16
2017-04-26T02:01:21.094Z,1001.13
2017-04-26T02:02:22.505Z,1001.12
2017-04-26T02:03:23.910Z,1001.13
2017-04-26T02:04:25.322Z,1001.14
2017-04-26T02:05:26.737Z,1001.13
2017-04-26T02:06:28.145Z,1001.17
2017-04-26T02:07:29.557Z,1001.12
2017-04-26T02:08:30.963Z,1001.13
2017-04-26T02:09:32.377Z,1001.09
2017-04-26T02:10:33.788Z,1001.12
2017-04-26T02:11:35.197Z,1001.12
2017-04-26T02:12:36.603Z,1001.13
2017-04-26T02:13:38.011Z,1001.10
2017-04-26T02:14:39.429Z,1001.14
2017-04-26T02:15:40.847Z,1001.07
2017-04-26T02:16:42.257Z,1001.09
2017-04-26T02:17:43.671Z,1001.12
2017-04-26T02:18:45.078Z,1001.16
2017-04-26T02:19:46.489Z,1001.11
2017-04-26T02:20:47.903Z,1001.08
2017-04-26T02:21:49.313Z,1001.13
2017-04-26T02:22:50.728Z,1001.06
2017-04-26T02:23:52.142Z,1001.13
2017-04-26T02:24:53.550Z,1001.09
2017-04-26T02:25:54.970Z,1001.14
2017-04-26T02:26:56.377Z,1001.16
2017-04-26T02:27:57.800Z,1001.18
2017-04-26T02:28:59.217Z,1001.18
2017-04-26T02:30:00.631Z,1001.24
2017-04-26T02:31:02.046Z,1001.14
2017-04-26T02:32:03.459Z,1001.16
2017-04-26T02:33:04.878Z,1001.14
2017-04-26T02:34:06.285Z,1001.11
2017-04-26T02:35:07.700Z,1001.14
2017-04-26T02:36:09.117Z,1001.16
2017-04-26T02:37:10.529Z,1001.12
2017-04-26T02:38:11.936Z,1001.12
2017-04-26T02:39:13.349Z,1001.10
2017-04-26T02:40:14.761Z,1001.10
2017-04-26T02:41:16.173Z,1001.08
2017-04-26T02:42:17.585Z,1001.09
2017-04-26T02:43:18.996Z,1001.08
2017-04-26T02:44:20.444Z,1001.06
2017-04-26T02:45:21.849Z,1001.11
2017-04-26T02:46:23.264Z,1001.14
2017-04-26T02:47:24.683Z,1001.11
2017-04-26T02:48:26.097Z,1001.06
2017-04-26T02:49:27.520Z,1001.07
2017-04-26T02:50:28.931Z,1001.08
2017-04-26T02:51:30.343Z,1001.10
2017-04-26T02:52:31.750Z,1001.07
2017-04-26T02:53:33.167Z,1001.06
2017-04-26T02:54:34.583Z,1001.04
2017-04-26T02:55:35.990Z,1001.04
2017-04-26T02:56:37.403Z,1001.07
2017-04-26T02:57:38.815Z,1001.06
2017-04-26T02:58:40.236Z,1001.06
2017-04-26T02:59:41.642Z,1001.08
2017-04-26T03:00:43.058Z,1001.08
2017-04-26T03:01:45.240Z,1001.03
2017-04-26T03:02:46.649Z,1001.02
2017-04-26T03:03:48.061Z,1001.04
2017-04-26T03:04:49.472Z,1001.02
2017-04-26T03:05:50.883Z,1000.98
2017-04-26T03:06:52.299Z,1000.98
2017-04-26T03:07:53.704Z,1001.01
2017-04-26T03:08:56.072Z,1000.98
2017-04-26T03:09:57.482Z,1001.03
2017-04-26T03:10:58.918Z,1000.97
2017-04-26T03:12:00.338Z,1000.97
2017-04-26T03:13:01.753Z,1000.99
2017-04-26T03:14:03.166Z,1000.97
2017-04-26T03:15:04.584Z,1000.96
2017-04-26T03:16:05.996Z,1000.96
2017-04-26T03:17:07.404Z,1000.95
2017-04-26T03:18:08.825Z,1000.96
2017-04-26T03:19:10.236Z,1000.95
2017-04-26T03:20:11.662Z,1000.97
2017-04-26T03:21:13.080Z,1000.95
2017-04-26T03:22:14.496Z,1000.93
2017-04-26T03:23:15.912Z,1000.97
2017-04-26T03:24:17.331Z,1000.94
2017-04-26T03:25:18.752Z,1000.95
2017-04-26T03:26:20.163Z,1000.91
2017-04-26T03:27:21.575Z,1000.97
2017-04-26T03:28:22.999Z,1000.98
2017-04-26T03:29:24.410Z,1000.97
2017-04-26T03:30:25.826Z,1000.99
2017-04-26T03:31:27.229Z,1000.99
2017-04-26T03:32:28.639Z,1000.98
2017-04-26T03:33:30.053Z,1000.99
2017-04-26T03:34:31.464Z,1000.97
2017-04-26T03:35:32.875Z,1000.99
2017-04-26T03:36:34.295Z,1000.97
2017-04-26T03:37:35.710Z,1000.96
2017-04-26T03:38:37.113Z,1001.00
2017-04-26T03:39:38.529Z,1001.01
2017-04-26T03:40:39.937Z,1001.03
2017-04-26T03:41:41.352Z,1001.02
2017-04-26T03:42:42.758Z,1000.97
2017-04-26T03:43:44.178Z,1001.01
2017-04-26T03:44:45.590Z,1001.01
2017-04-26T03:45:47.002Z,1001.04
2017-04-26T03:46:48.429Z,1001.03
2017-04-26T03:47:49.837Z,1001.03
2017-04-26T03:48:51.247Z,1000.99
2017-04-26T03:49:52.652Z,1001.02
2017-04-26T03:50:54.066Z,1001.01
2017-04-26T03:51:55.482Z,1001.02
2017-04-26T03:52:56.896Z,1001.01
2017-04-26T03:53:58.309Z,1001.05
2017-04-26T03:54:59.723Z,1001.03
2017-04-26T03:56:01.130Z,1001.02
2017-04-26T03:57:02.541Z,1001.06
2017-04-26T03:58:03.958Z,1001.04
2017-04-26T03:59:05.365Z,1001.01
2017-04-26T04:00:06.777Z,1001.00
2017-04-26T04:01:08.184Z,1001.07
2017-04-26T04:02:09.596Z,1001.00
2017-04-26T04:03:11.021Z,1001.02
2017-04-26T04:04:12.428Z,1001.03
2017-04-26T04:05:13.834Z,1001.05
2017-04-26T04:06:15.243Z,1001.05
2017-04-26T04:07:16.655Z,1001.08
2017-04-26T04:08:18.067Z,1001.05
2017-04-26T04:09:19.473Z,1001.06
2017-04-26T04:10:20.882Z,1001.07
2017-04-26T04:11:22.289Z,1001.07
2017-04-26T04:12:23.699Z,1001.07
2017-04-26T04:13:25.115Z,1001.05
2017-04-26T04:14:26.566Z,1001.06
2017-04-26T04:15:27.990Z,1001.03
2017-04-26T04:16:29.405Z,1001.04
2017-04-26T04:17:30.829Z,1001.07
2017-04-26T04:18:32.238Z,1001.07
2017-04-26T04:19:33.650Z,1001.08
2017-04-26T04:20:35.055Z,1001.10
2017-04-26T04:21:36.462Z,1001.11
2017-04-26T04:22:37.888Z,1001.06
2017-04-26T04:23:39.294Z,1001.11
2017-04-26T04:24:40.708Z,1001.11
2017-04-26T04:25:42.124Z,1001.14
2017-04-26T04:26:43.535Z,1001.10
2017-04-26T04:27:44.947Z,1001.16
2017-04-26T04:28:46.361Z,1001.16
2017-04-26T04:29:47.770Z,1001.17
2017-04-26T04:30:49.186Z,1001.15
2017-04-26T04:31:50.603Z,1001.18
2017-04-26T04:32:52.024Z,1001.18
2017-04-26T04:33:53.440Z,1001.16
2017-04-26T04:34:54.852Z,1001.13
2017-04-26T04:35:56.272Z,1001.11
2017-04-26T04:36:57.697Z,1001.17
2017-04-26T04:37:59.122Z,1001.16
2017-04-26T04:39:00.536Z,1001.22
2017-04-26T04:40:01.957Z,1001.18
2017-04-26T04:41:03.372Z,1001.20
2017-04-26T04:42:04.782Z,1001.23
2017-04-26T04:43:06.199Z,1001.16
2017-04-26T04:44:07.613Z,1001.17
2017-04-26T04:45:09.031Z,1001.21
2017-04-26T04:46:10.447Z,1001.23
2017-04-26T04:47:11.870Z,1001.25
2017-04-26T04:48:13.284Z,1001.25
2017-04-26T04:49:14.712Z,1001.25
2017-04-26T04:50:16.130Z,1001.25
2017-04-26T04:51:17.544Z,1001.27
2017-04-26T04:52:18.968Z,1001.24
2017-04-26T04:53:20.385Z,1001.25
2017-04-26T04:54:21.799Z,1001.29
2017-04-26T04:55:23.216Z,1001.26
2017-04-26T04:56:24.626Z,1001.29
2017-04-26T04:57:26.037Z,1001.29
2017-04-26T04:58:27.454Z,1001.34
2017-04-26T04:59:28.870Z,1001.33
2017-04-26T05:00:30.293Z,1001.35
2017-04-26T05:01:31.711Z,1001.37
2017-04-26T05:02:33.134Z,1001.32
2017-04-26T05:03:34.561Z,1001.31
2017-04-26T05:04:35.979Z,1001.31
2017-04-26T05:05:37.395Z,1001.38
2017-04-26T05:06:38.821Z,1001.31
2017-04-26T05:07:40.235Z,1001.34
2017-04-26T05:08:41.657Z,1001.36
2017-04-26T05:09:43.081Z,1001.34
2017-04-26T05:10:44.493Z,1001.33
2017-04-26T05:11:45.906Z,1001.39
2017-04-26T05:12:47.323Z,1001.37
2017-04-26T05:13:48.736Z,1001.34
2017-04-26T05:14:50.156Z,1001.34
2017-04-26T05:15:51.567Z,1001.31
2017-04-26T05:16:52.991Z,1001.32
2017-04-26T05:17:54.407Z,1001.37
2017-04-26T05:18:55.821Z,1001.39
2017-04-26T05:19:57.236Z,1001.37
2017-04-26T05:20:58.650Z,1001.42
2017-04-26T05:22:00.067Z,1001.43
2017-04-26T05:23:01.490Z,1001.42
2017-04-26T05:24:02.903Z,1001.42
2017-04-26T05:25:04.320Z,1001.49
2017-04-26T05:26:05.734Z,1001.53
2017-04-26T05:27:07.152Z,1001.50
2017-04-26T05:28:08.573Z,1001.55
2017-04-26T05:29:09.994Z,1001.54
2017-04-26T05:30:11.403Z,1001.54
2017-04-26T05:31:12.850Z,1001.56
2017-04-26T05:32:14.270Z,1001.60
2017-04-26T05:33:15.681Z,1001.59
2017-04-26T05:34:17.104Z,1001.59
2017-04-26T05:35:18.525Z,1001.56
2017-04-26T05:36:19.933Z,1001.63
2017-04-26T05:37:21.357Z,1001.57
2017-04-26T05:38:22.769Z,1001.59
2017-04-26T05:39:24.190Z,1001.61
2017-04-26T05:40:25.603Z,1001.57
2017-04-26T05:41:27.012Z,1001.59
2017-04-26T05:42:28.427Z,1001.58
2017-04-26T05:43:29.845Z,1001.56
2017-04-26T05:44:31.266Z,1001.58
2017-04-26T05:45:32.678Z,1001.59
2017-04-26T05:46:34.103Z,1001.59
2017-04-26T05:47:35.517Z,1001.58
2017-04-26T05:48:36.937Z,1001.62
2017-04-26T05:49:38.351Z,1001.65
2017-04-26T05:50:39.767Z,1001.62
2017-04-26T05:51:41.191Z,1001.66
2017-04-26T05:52:42.602Z,1001.64
2017-04-26T05:53:44.019Z,1001.67
2017-04-26T05:54:45.431Z,1001.64
2017-04-26T05:55:46.849Z,1001.64
2017-04-26T05:56:48.264Z,1001.64
2017-04-26T05:57:49.679Z,1001.59
2017-04-26T05:58:51.091Z,1001.66
2017-04-26T05:59:52.515Z,1001.72
2017-04-26T06:00:53.933Z,1001.70
2017-04-26T06:01:55.353Z,1001.78
2017-04-26T06:02:56.781Z,1001.75
2017-04-26T06:03:58.198Z,1001.77
2017-04-26T06:04:59.617Z,1001.81
2017-04-26T06:06:01.033Z,1001.79
2017-04-26T06:07:02.455Z,1001.81
2017-04-26T06:08:03.875Z,1001.84
2017-04-26T06:09:05.289Z,1001.80
2017-04-26T06:10:06.711Z,1001.80
2017-04-26T06:11:08.239Z,1001.85
2017-04-26T06:12:09.656Z,1001.83
2017-04-26T06:13:11.078Z,1001.85
2017-04-26T06:14:12.593Z,1001.84
2017-04-26T06:15:14.975Z,1001.83
2017-04-26T06:16:16.397Z,1001.86
2017-04-26T06:17:17.822Z,1001.81
2017-04-26T06:18:19.243Z,1001.84
2017-04-26T06:19:20.656Z,1001.88
2017-04-26T06:20:22.076Z,1001.87
2017-04-26T06:21:23.495Z,1001.87
2017-04-26T06:22:24.920Z,1001.89
2017-04-26T06:23:26.339Z,1001.88
2017-04-26T06:24:27.762Z,1001.85
2017-04-26T06:25:29.177Z,1001.87
2017-04-26T06:26:30.597Z,1001.88
2017-04-26T06:27:32.009Z,1001.88
2017-04-26T06:28:33.423Z,1001.88
2017-04-26T06:29:34.850Z,1001.89
2017-04-26T06:30:36.268Z,1001.91
2017-04-26T06:31:37.688Z,1001.94
2017-04-26T06:32:39.111Z,1001.96
2017-04-26T06:33:40.520Z,1001.94
2017-04-26T06:34:41.941Z,1001.99
2017-04-26T06:35:43.361Z,1001.96
2017-04-26T06:36:44.776Z,1002.01
2017-04-26T06:37:46.197Z,1002.03
2017-04-26T06:38:47.622Z,1002.09
2017-04-26T06:39:49.047Z,1002.07
2017-04-26T06:40:50.469Z,1002.07
2017-04-26T06:41:51.884Z,1002.04
2017-04-26T06:42:53.297Z,1002.04
2017-04-26T06:43:54.723Z,1002.04
2017-04-26T06:44:56.147Z,1002.02
2017-04-26T06:45:57.567Z,1002.01
2017-04-26T06:46:58.984Z,1002.04
2017-04-26T06:48:00.412Z,1002.07
2017-04-26T06:49:01.828Z,1002.07
2017-04-26T06:50:03.250Z,1002.10
2017-04-26T06:51:04.668Z,1002.11
2017-04-26T06:52:06.086Z,1002.13
2017-04-26T06:53:07.533Z,1002.11
2017-04-26T06:54:08.955Z,1002.12
2017-04-26T06:55:10.359Z,1002.11
2017-04-26T06:56:11.783Z,1002.20
2017-04-26T06:57:13.198Z,1002.11
2017-04-26T06:58:14.682Z,1002.16
2017-04-26T06:59:16.109Z,1002.17
2017-04-26T07:00:17.524Z,1002.18
2017-04-26T07:01:18.953Z,1002.19
2017-04-26T07:02:20.374Z,1002.20
2017-04-26T07:03:21.798Z,1002.17
2017-04-26T07:04:23.217Z,1002.20
2017-04-26T07:05:24.637Z,1002.17
2017-04-26T07:06:26.060Z,1002.21
2017-04-26T07:07:27.478Z,1002.19
2017-04-26T07:08:28.900Z,1002.18
2017-04-26T07:09:30.329Z,1002.16
2017-04-26T07:10:31.754Z,1002.13
2017-04-26T07:11:33.183Z,1002.21
2017-04-26T07:12:34.608Z,1002.19
2017-04-26T07:13:36.031Z,1002.13
2017-04-26T07:14:37.450Z,1002.17
2017-04-26T07:15:38.870Z,1002.16
2017-04-26T07:16:40.296Z,1002.16
2017-04-26T07:17:41.721Z,1002.16
2017-04-26T07:18:43.142Z,1002.17
2017-04-26T07:19:44.561Z,1002.12
2017-04-26T07:20:45.979Z,1002.15
2017-04-26T07:21:47.409Z,1002.14
2017-04-26T07:22:48.835Z,1002.16
2017-04-26T07:23:50.251Z,1002.19
2017-04-26T07:24:51.677Z,1002.19
2017-04-26T07:25:53.101Z,1002.19
2017-04-26T07:26:54.524Z,1002.22
2017-04-26T07:27:55.946Z,1002.19
2017-04-26T07:28:57.371Z,1002.27
2017-04-26T07:29:58.805Z,1002.21
2017-04-26T07:31:00.230Z,1002.21
2017-04-26T07:32:01.650Z,1002.17
2017-04-26T07:33:03.078Z,1002.18
2017-04-26T07:34:04.505Z,1002.18
2017-04-26T07:35:05.927Z,1002.17
2017-04-26T07:36:07.345Z,1002.20
2017-04-26T07:37:08.772Z,1002.19
2017-04-26T07:38:10.201Z,1002.18
2017-04-26T07:39:11.617Z,1002.27
2017-04-26T07:40:13.038Z,1002.27
2017-04-26T07:41:14.466Z,1002.19
2017-04-26T07:42:15.890Z,1002.26
2017-04-26T07:43:17.309Z,1002.22
2017-04-26T07:44:18.738Z,1002.21
2017-04-26T07:45:20.162Z,1002.23
2017-04-26T07:46:21.595Z,1002.24
2017-04-26T07:47:23.022Z,1002.26
2017-04-26T07:48:24.438Z,1002.21
2017-04-26T07:49:25.872Z,1002.21
2017-04-26T07:50:27.294Z,1002.24
2017-04-26T07:51:28.714Z,1002.22
2017-04-26T07:52:30.143Z,1002.26
2017-04-26T07:53:31.564Z,1002.20
2017-04-26T07:54:32.988Z,1002.23
2017-04-26T07:55:34.411Z,1002.23
2017-04-26T07:56:35.833Z,1002.24
2017-04-26T07:57:37.255Z,1002.21
2017-04-26T07:58:38.680Z,1002.23
2017-04-26T07:59:40.100Z,1002.24
2017-04-26T08:00:41.525Z,1002.24
2017-04-26T08:01:42.943Z,1002.22
2017-04-26T08:02:44.366Z,1002.25
2017-04-26T08:03:45.799Z,1002.23
2017-04-26T08:04:47.222Z,1002.20
2017-04-26T08:05:48.651Z,1002.25
2017-04-26T08:06:50.089Z,1002.26
2017-04-26T08:07:51.488Z,1002.26
2017-04-26T08:08:52.912Z,1002.28
2017-04-26T08:09:54.336Z,1002.32
2017-04-26T08:10:55.757Z,1002.30
2017-04-26T08:11:57.177Z,1002.25
2017-04-26T08:12:58.604Z,1002.26
2017-04-26T08:14:00.026Z,1002.29
2017-04-26T08:15:01.451Z,1002.23
2017-04-26T08:16:02.873Z,1002.23
2017-04-26T08:17:04.297Z,1002.26
2017-04-26T08:18:05.712Z,1002.30
2017-04-26T08:19:07.141Z,1002.28
2017-04-26T08:20:08.562Z,1002.31
2017-04-26T08:21:09.987Z,1002.25
2017-04-26T08:22:11.411Z,1002.31
2017-04-26T08:23:12.830Z,1002.32
2017-04-26T08:24:14.252Z,1002.28
2017-04-26T08:25:15.687Z,1002.28
2017-04-26T08:26:17.099Z,1002.31
2017-04-26T08:27:18.526Z,1002.25
2017-04-26T08:28:19.951Z,1002.25
2017-04-26T08:29:21.370Z,1002.27
2017-04-26T08:30:22.800Z,1002.30
2017-04-26T08:31:24.220Z,1002.26
2017-04-26T08:32:25.641Z,1002.29
2017-04-26T08:33:27.069Z,1002.28
2017-04-26T08:34:28.486Z,1002.32
2017-04-26T08:35:29.909Z,1002.31
2017-04-26T08:36:31.331Z,1002.27
2017-04-26T08:37:32.756Z,1002.27
2017-04-26T08:38:34.183Z,1002.30
2017-04-26T08:39:35.607Z,1002.29
2017-04-26T08:40:37.031Z,1002.22
2017-04-26T08:41:38.466Z,1002.27
2017-04-26T08:42:39.890Z,1002.31
2017-04-26T08:43:41.312Z,1002.30
2017-04-26T08:44:42.736Z,1002.33
2017-04-26T08:45:44.159Z,1002.30
2017-04-26T08:46:45.582Z,1002.36
2017-04-26T08:47:47.012Z,1002.41
2017-04-26T08:48:48.449Z,1002.41
2017-04-26T08:49:49.875Z,1002.37
2017-04-26T08:50:51.301Z,1002.45
2017-04-26T08:51:52.723Z,1002.42
2017-04-26T08:52:54.148Z,1002.40
2017-04-26T08:53:55.572Z,1002.43
2017-04-26T08:54:56.996Z,1002.48
2017-04-26T08:55:58.416Z,1002.39
2017-04-26T08:56:59.837Z,1002.42
2017-04-26T08:58:01.260Z,1002.40
2017-04-26T08:59:02.688Z,1002.42
2017-04-26T09:00:04.113Z,1002.39
2017-04-26T09:01:05.537Z,1002.47
2017-04-26T09:02:06.964Z,1002.48
2017-04-26T09:03:08.379Z,1002.52
2017-04-26T09:04:09.801Z,1002.53
2017-04-26T09:05:11.229Z,1002.47
2017-04-26T09:06:12.646Z,1002.49
2017-04-26T09:07:14.080Z,1002.49
2017-04-26T09:08:15.504Z,1002.52
2017-04-26T09:09:16.929Z,1002.52
2017-04-26T09:10:18.359Z,1002.48
2017-04-26T09:11:19.774Z,1002.52
2017-04-26T09:12:21.213Z,1002.50
2017-04-26T09:13:22.638Z,1002.57
2017-04-26T09:14:24.058Z,1002.55
2017-04-26T09:15:25.487Z,1002.56
2017-04-26T09:16:26.914Z,1002.59
2017-04-26T09:17:28.340Z,1002.61
2017-04-26T09:18:29.759Z,1002.56
2017-04-26T09:19:31.184Z,1002.61
2017-04-26T09:20:32.603Z,1002.60
2017-04-26T09:21:34.027Z,1002.56
2017-04-26T09:22:35.449Z,1002.59
2017-04-26T09:23:36.886Z,1002.59
2017-04-26T09:24:38.304Z,1002.62
2017-04-26T09:25:39.723Z,1002.61
2017-04-26T09:26:41.145Z,1002.61
2017-04-26T09:27:42.571Z,1002.66
2017-04-26T09:28:43.997Z,1002.65
2017-04-26T09:29:45.422Z,1002.62
2017-04-26T09:30:46.845Z,1002.63
2017-04-26T09:31:48.278Z,1002.60
2017-04-26T09:32:49.699Z,1002.62
2017-04-26T09:33:51.129Z,1002.63
2017-04-26T09:34:52.638Z,1002.65
2017-04-26T09:35:54.067Z,1002.64
2017-04-26T09:36:55.484Z,1002.66
2017-04-26T09:37:56.917Z,1002.69
2017-04-26T09:38:58.338Z,1002.69
2017-04-26T09:39:59.763Z,1002.71
2017-04-26T09:41:01.190Z,1002.74
2017-04-26T09:42:02.624Z,1002.74
2017-04-26T09:43:04.039Z,1002.86
2017-04-26T09:44:05.468Z,1002.77
2017-04-26T09:45:06.891Z,1002.80
2017-04-26T09:46:08.314Z,1002.83
2017-04-26T09:47:09.742Z,1002.81
2017-04-26T09:48:11.160Z,1002.77
2017-04-26T09:49:12.582Z,1002.77
2017-04-26T09:50:14.014Z,1002.78
2017-04-26T09:51:15.439Z,1002.73
2017-04-26T09:52:16.860Z,1002.72
2017-04-26T09:53:18.283Z,1002.76
2017-04-26T09:54:19.708Z,1002.77
2017-04-26T09:55:21.143Z,1002.73
2017-04-26T09:56:22.573Z,1002.76
2017-04-26T09:57:24.002Z,1002.78
2017-04-26T09:58:25.432Z,1002.76
2017-04-26T09:59:26.867Z,1002.77
2017-04-26T10:00:28.290Z,1002.79
2017-04-26T10:01:29.714Z,1002.78
2017-04-26T10:02:31.143Z,1002.84
2017-04-26T10:03:32.568Z,1002.89
2017-04-26T10:04:33.996Z,1002.85
2017-04-26T10:05:35.424Z,1002.88
2017-04-26T10:06:36.854Z,1002.95
2017-04-26T10:07:38.281Z,1002.93
2017-04-26T10:08:39.702Z,1002.92
2017-04-26T10:09:41.129Z,1002.90
2017-04-26T10:10:42.553Z,1002.92
2017-04-26T10:11:43.985Z,1002.83
2017-04-26T10:12:45.403Z,1002.86
2017-04-26T10:13:46.826Z,1002.85
2017-04-26T10:15:03.495Z,1002.85
2017-04-26T10:15:49.631Z,1002.95
2017-04-26T10:16:51.063Z,1002.88
2017-04-26T10:17:52.485Z,1002.93
2017-04-26T10:18:53.898Z,1002.95
2017-04-26T10:19:55.323Z,1002.96
2017-04-26T10:20:56.746Z,1002.96
2017-04-26T10:21:58.172Z,1002.98
2017-04-26T10:22:59.619Z,1002.99
2017-04-26T10:24:01.046Z,1002.99
2017-04-26T10:25:02.471Z,1003.00
2017-04-26T10:26:03.900Z,1003.01
2017-04-26T10:27:05.328Z,1002.99
2017-04-26T10:28:06.759Z,1003.02
2017-04-26T10:29:08.182Z,1003.03
2017-04-26T10:30:09.613Z,1003.03
2017-04-26T10:31:11.040Z,1003.06
2017-04-26T10:32:12.472Z,1003.07
2017-04-26T10:33:13.907Z,1003.02
2017-04-26T10:34:15.322Z,1003.05
2017-04-26T10:35:16.763Z,1003.07
2017-04-26T10:36:18.200Z,1003.05
2017-04-26T10:37:19.627Z,1003.06
2017-04-26T10:38:21.048Z,1003.05
2017-04-26T10:39:22.470Z,1003.01
2017-04-26T10:40:23.894Z,1003.03
2017-04-26T10:41:25.314Z,1003.02
2017-04-26T10:42:26.735Z,1003.02
2017-04-26T10:43:28.172Z,1003.06
2017-04-26T10:44:29.605Z,1003.07
2017-04-26T10:45:31.031Z,1003.07
2017-04-26T10:46:32.456Z,1003.06
2017-04-26T10:47:33.874Z,1002.98
2017-04-26T10:48:35.303Z,1003.09
2017-04-26T10:49:36.734Z,1003.07
2017-04-26T10:50:38.159Z,1003.06
2017-04-26T10:51:39.584Z,1003.09
2017-04-26T10:52:41.011Z,1003.05
2017-04-26T10:53:42.454Z,1003.07
2017-04-26T10:54:43.876Z,1003.06
2017-04-26T10:55:45.307Z,1003.06
2017-04-26T10:56:46.741Z,1003.02
2017-04-26T10:57:48.166Z,1003.06
2017-04-26T10:58:49.592Z,1003.05
2017-04-26T10:59:51.024Z,1003.07
2017-04-26T11:00:52.455Z,1003.08
2017-04-26T11:01:53.877Z,1003.03
2017-04-26T11:02:55.302Z,1003.05
2017-04-26T11:03:56.729Z,1003.07
2017-04-26T11:04:58.157Z,1003.10
2017-04-26T11:05:59.572Z,1003.01
2017-04-26T11:07:00.997Z,1003.08
2017-04-26T11:08:02.424Z,1003.01
2017-04-26T11:09:03.849Z,1003.00
2017-04-26T11:10:05.279Z,1003.04
2017-04-26T11:11:06.704Z,1003.06
2017-04-26T11:12:08.130Z,1003.07
2017-04-26T11:13:09.561Z,1003.11
2017-04-26T11:14:10.985Z,1003.16
2017-04-26T11:15:12.413Z,1003.11
2017-04-26T11:16:13.835Z,1003.15
2017-04-26T11:17:15.261Z,1003.15
2017-04-26T11:18:16.690Z,1003.13
2017-04-26T11:19:18.111Z,1003.09
2017-04-26T11:20:19.546Z,1003.13
2017-04-26T11:21:20.972Z,1003.13
2017-04-26T11:22:22.401Z,1003.13
2017-04-26T11:23:23.826Z,1003.09
2017-04-26T11:24:25.244Z,1003.15
2017-04-26T11:25:26.685Z,1003.13
2017-04-26T11:26:28.113Z,1003.16
2017-04-26T11:27:29.538Z,1003.11
2017-04-26T11:28:30.968Z,1003.14
2017-04-26T11:29:32.505Z,1003.12
2017-04-26T11:30:33.930Z,1003.17
2017-04-26T11:31:35.355Z,1003.22
2017-04-26T11:32:36.783Z,1003.17
2017-04-26T11:33:38.238Z,1003.16
2017-04-26T11:34:39.660Z,1003.12
2017-04-26T11:35:41.089Z,1003.14
2017-04-26T11:36:42.509Z,1003.11
2017-04-26T11:37:43.941Z,1003.12
2017-04-26T11:38:45.368Z,1003.10
2017-04-26T11:39:46.791Z,1003.02
2017-04-26T11:40:48.327Z,1003.03
2017-04-26T11:41:49.750Z,1002.96
2017-04-26T11:42:51.183Z,1002.97
2017-04-26T11:43:52.702Z,1002.97
2017-04-26T11:44:54.125Z,1002.92
2017-04-26T11:45:55.551Z,1002.93
2017-04-26T11:46:56.978Z,1002.96
2017-04-26T11:47:58.401Z,1002.83
2017-04-26T11:48:59.816Z,1002.87
2017-04-26T11:50:01.241Z,1002.85
2017-04-26T11:51:02.727Z,1002.86
2017-04-26T11:52:04.221Z,1002.86
2017-04-26T11:53:05.644Z,1002.87
2017-04-26T11:54:07.065Z,1002.88
2017-04-26T11:55:08.506Z,1002.87
2017-04-26T11:56:09.921Z,1002.90
2017-04-26T11:57:11.348Z,1002.86
2017-04-26T11:58:12.774Z,1002.86
2017-04-26T11:59:14.204Z,1002.88
2017-04-26T12:00:15.630Z,1002.88
2017-04-26T12:01:17.052Z,1002.84
2017-04-26T12:02:18.480Z,1002.81
2017-04-26T12:03:19.901Z,1002.86
2017-04-26T12:04:21.327Z,1002.86
2017-04-26T12:05:22.749Z,1002.89
2017-04-26T12:06:24.185Z,1002.87
2017-04-26T12:07:25.614Z,1002.88
2017-04-26T12:08:27.042Z,1002.86
2017-04-26T12:09:28.470Z,1002.82
2017-04-26T12:10:29.894Z,1002.83
2017-04-26T12:11:31.320Z,1002.79
2017-04-26T12:12:32.756Z,1002.80
2017-04-26T12:13:34.178Z,1002.85
2017-04-26T12:14:35.606Z,1002.85
2017-04-26T12:15:37.031Z,1002.83
2017-04-26T12:16:38.459Z,1002.79
2017-04-26T12:17:39.884Z,1002.85
2017-04-26T12:18:41.313Z,1002.86
2017-04-26T12:19:42.763Z,1002.91
2017-04-26T12:20:44.186Z,1002.88
2017-04-26T12:21:45.621Z,1002.85
2017-04-26T12:22:47.045Z,1002.80